Time;durP1;ratioP1;P1;durP2;ratioP2;P2;SDS_P1;SDS_P2;PMS_P1;PMS_P2;Temp;Humidity;BMP_temperature;BMP_pressure;BME280_temperature;BME280_humidity;BME280_pressure;Samples;Min_cycle;Max_cycle;Signal;HPM_P1;HPM_P2
2022/04/01 00:02:03;;;;;;;3.97;1.10;;;;;;;;;;5046230;28;20065;-50
2022/04/01 00:04:29;;;;;;;4.00;1.45;;;;;;;;;;5043719;28;20069;-54
2022/04/01 00:06:55;;;;;;;3.45;1.30;;;;;;;;;;5048516;28;20032;-50
2022/04/01 00:09:21;;;;;;;2.92;1.27;;;;;;;;;;5049016;28;20108;-53
2022/04/01 00:11:47;;;;;;;2.63;1.40;;;;;;;;;;5049221;28;20459;-50
2022/04/01 00:14:14;;;;;;;2.28;1.25;;;;;;;;;;5048468;28;20869;-50
2022/04/01 00:16:41;;;;;;;3.47;1.30;;;;;;;;;;5048596;28;20029;-51
2022/04/01 00:19:07;;;;;;;4.07;1.55;;;;;;;;;;5046757;28;20467;-50
2022/04/01 00:21:33;;;;;;;2.40;1.25;;;;;;;;;;5048504;28;20144;-52
2022/04/01 00:23:59;;;;;;;2.58;1.23;;;;;;;;;;5047402;28;20038;-53
2022/04/01 00:26:25;;;;;;;2.40;1.20;;;;;;;;;;5048507;28;20032;-54
2022/04/01 00:28:51;;;;;;;2.58;1.40;;;;;;;;;;5048197;28;20411;-54
2022/04/01 00:31:17;;;;;;;2.80;1.38;;;;;;;;;;5047780;28;20029;-52
2022/04/01 00:33:43;;;;;;;2.90;1.30;;;;;;;;;;5046986;28;20037;-54
2022/04/01 00:36:09;;;;;;;2.88;1.30;;;;;;;;;;5048665;28;20037;-51
2022/04/01 00:38:35;;;;;;;2.22;1.05;;;;;;;;;;5047866;28;20539;-54
2022/04/01 00:41:03;;;;;;;3.05;1.30;;;;;;;;;;5048381;28;20037;-53
2022/04/01 00:43:30;;;;;;;3.05;1.17;;;;;;;;;;5047973;28;20025;-53
2022/04/01 00:45:57;;;;;;;3.63;1.20;;;;;;;;;;5047988;28;20037;-52
2022/04/01 00:48:24;;;;;;;2.55;1.38;;;;;;;;;;5046225;28;20128;-51
2022/04/01 00:50:50;;;;;;;4.00;1.45;;;;;;;;;;5048113;28;20414;-54
2022/04/01 00:53:18;;;;;;;2.78;1.20;;;;;;;;;;5048276;28;20039;-53
2022/04/01 00:55:44;;;;;;;2.83;1.15;;;;;;;;;;5046503;28;20120;-50
2022/04/01 00:58:10;;;;;;;3.20;1.52;;;;;;;;;;5048231;28;20025;-54
2022/04/01 01:00:36;;;;;;;3.58;1.30;;;;;;;;;;5047530;28;21019;-53
2022/04/01 01:03:04;;;;;;;3.25;1.35;;;;;;;;;;5044061;28;20079;-55
2022/04/01 01:05:33;;;;;;;2.75;1.50;;;;;;;;;;5043181;28;20064;-54
2022/04/01 01:07:59;;;;;;;3.83;1.20;;;;;;;;;;5047668;28;20202;-55
2022/04/01 01:10:26;;;;;;;1.83;0.98;;;;;;;;;;5047127;28;20539;-53
2022/04/01 01:12:52;;;;;;;1.88;1.17;;;;;;;;;;5048205;28;20495;-54
2022/04/01 01:15:18;;;;;;;2.80;1.17;;;;;;;;;;5046873;28;20510;-54
2022/04/01 01:17:45;;;;;;;1.92;1.00;;;;;;;;;;5044507;28;20108;-54
2022/04/01 01:20:21;;;;;;;3.50;1.30;;;;;;;;;;5035960;28;20021;-53
2022/04/01 01:22:48;;;;;;;3.03;1.38;;;;;;;;;;5047888;28;20032;-52
2022/04/01 01:25:14;;;;;;;2.65;1.40;;;;;;;;;;5038283;28;20411;-52
2022/04/01 01:27:43;;;;;;;3.20;1.50;;;;;;;;;;5047279;28;20052;-52
2022/04/01 01:30:09;;;;;;;2.83;1.67;;;;;;;;;;5047301;28;20090;-53
2022/04/01 01:32:35;;;;;;;3.80;1.10;;;;;;;;;;5047321;28;20370;-52
2022/04/01 01:35:02;;;;;;;2.70;1.50;;;;;;;;;;5048358;28;20491;-50
2022/04/01 01:37:28;;;;;;;5.03;1.10;;;;;;;;;;5052095;28;20033;-51
2022/04/01 01:39:55;;;;;;;2.50;1.20;;;;;;;;;;5054820;28;20108;-53
2022/04/01 01:42:21;;;;;;;3.00;1.10;;;;;;;;;;5055440;28;20039;-54
2022/04/01 01:44:47;;;;;;;2.28;1.33;;;;;;;;;;5054793;28;20115;-50
2022/04/01 01:47:13;;;;;;;4.00;1.20;;;;;;;;;;5054161;28;20112;-51
2022/04/01 01:54:42;;;;;;;2.67;1.20;;;;;;;;;;5054343;28;20130;-50
2022/04/01 01:55:13;;;;;;;2.67;1.00;;;;;;;;;;5034955;28;20049;-52
2022/04/01 01:57:39;;;;;;;2.58;1.30;;;;;;;;;;5054055;28;20555;-50
2022/04/01 02:00:10;;;;;;;2.95;1.23;;;;;;;;;;5054978;28;20025;-51
2022/04/01 02:02:37;;;;;;;2.90;1.40;;;;;;;;;;5054223;28;20056;-47
2022/04/01 02:05:04;;;;;;;3.80;1.20;;;;;;;;;;5054968;28;20040;-49
2022/04/01 02:07:30;;;;;;;2.22;1.10;;;;;;;;;;5045561;28;20030;-54
2022/04/01 02:09:56;;;;;;;1.85;1.00;;;;;;;;;;5053328;28;20068;-52
2022/04/01 02:12:22;;;;;;;2.65;0.98;;;;;;;;;;5054006;28;20052;-54
2022/04/01 02:14:48;;;;;;;3.88;1.48;;;;;;;;;;5054497;28;20109;-53
2022/04/01 02:17:14;;;;;;;3.05;0.98;;;;;;;;;;5054054;28;20065;-49
2022/04/01 02:19:41;;;;;;;2.08;1.10;;;;;;;;;;5054227;28;21058;-49
2022/04/01 02:22:07;;;;;;;2.10;1.05;;;;;;;;;;5052269;28;20535;-51
2022/04/01 02:24:33;;;;;;;2.40;1.17;;;;;;;;;;5054164;28;20049;-49
2022/04/01 02:27:00;;;;;;;3.90;1.30;;;;;;;;;;5054159;28;20025;-48
2022/04/01 02:29:28;;;;;;;2.58;1.25;;;;;;;;;;5043074;28;20107;-48
2022/04/01 02:31:54;;;;;;;2.50;1.10;;;;;;;;;;5054197;28;20487;-49
2022/04/01 02:34:21;;;;;;;3.55;1.17;;;;;;;;;;5054279;28;20029;-48
2022/04/01 02:36:47;;;;;;;3.75;1.10;;;;;;;;;;5053046;28;20407;-48
2022/04/01 02:39:13;;;;;;;3.60;1.20;;;;;;;;;;5054157;28;20021;-51
2022/04/01 02:41:40;;;;;;;3.63;1.25;;;;;;;;;;5053828;28;20074;-47
2022/04/01 02:44:09;;;;;;;3.05;1.23;;;;;;;;;;5053924;28;20025;-47
2022/04/01 02:46:36;;;;;;;2.22;1.02;;;;;;;;;;5052750;28;20040;-49
2022/04/01 02:49:06;;;;;;;2.00;1.10;;;;;;;;;;5051005;28;20021;-52
2022/04/01 02:51:32;;;;;;;2.57;1.07;;;;;;;;;;5046081;28;20059;-54
2022/04/01 02:53:59;;;;;;;1.92;1.08;;;;;;;;;;5045807;28;20325;-53
2022/04/01 02:56:25;;;;;;;2.00;0.95;;;;;;;;;;5050242;28;20455;-54
2022/04/01 02:58:51;;;;;;;1.65;1.20;;;;;;;;;;5049780;28;20605;-53
2022/04/01 03:01:17;;;;;;;2.28;0.85;;;;;;;;;;5048021;28;20033;-54
2022/04/01 03:03:43;;;;;;;2.90;1.20;;;;;;;;;;5042206;28;20137;-51
2022/04/01 03:06:10;;;;;;;1.92;1.13;;;;;;;;;;5049669;28;20621;-50
2022/04/01 03:08:36;;;;;;;1.98;0.95;;;;;;;;;;5049138;28;20021;-53
2022/04/01 03:11:02;;;;;;;1.85;1.10;;;;;;;;;;5049554;28;20025;-53
2022/04/01 03:13:29;;;;;;;3.03;1.30;;;;;;;;;;5049545;28;20032;-54
2022/04/01 03:15:56;;;;;;;2.13;1.00;;;;;;;;;;5050099;28;20028;-50
2022/04/01 03:18:22;;;;;;;2.20;1.10;;;;;;;;;;5048898;28;20037;-54
2022/04/01 03:20:48;;;;;;;2.53;1.30;;;;;;;;;;5049985;28;20458;-53
2022/04/01 03:23:14;;;;;;;2.95;1.58;;;;;;;;;;5048194;28;20044;-51
2022/04/01 03:25:40;;;;;;;1.58;1.17;;;;;;;;;;5049076;28;20087;-51
2022/04/01 03:28:06;;;;;;;1.80;1.00;;;;;;;;;;5048960;28;20510;-51
2022/04/01 03:30:32;;;;;;;2.20;1.30;;;;;;;;;;5049248;28;20108;-52
2022/04/01 03:33:00;;;;;;;1.95;1.02;;;;;;;;;;5049360;28;20134;-54
2022/04/01 03:35:27;;;;;;;2.75;0.93;;;;;;;;;;5048812;28;20480;-50
2022/04/01 03:37:54;;;;;;;1.88;1.10;;;;;;;;;;5048354;28;20035;-54
2022/04/01 03:40:22;;;;;;;2.08;1.00;;;;;;;;;;5048801;28;20399;-52
2022/04/01 03:42:51;;;;;;;2.70;1.30;;;;;;;;;;5049181;28;20057;-53
2022/04/01 03:45:20;;;;;;;1.83;1.00;;;;;;;;;;5048992;28;20565;-51
2022/04/01 03:47:51;;;;;;;2.28;1.00;;;;;;;;;;5048989;28;20090;-51
2022/04/01 03:50:17;;;;;;;1.77;1.02;;;;;;;;;;5048504;28;20128;-53
2022/04/01 03:52:46;;;;;;;2.30;1.00;;;;;;;;;;5048481;28;20029;-50
2022/04/01 03:55:12;;;;;;;3.63;1.73;;;;;;;;;;5049106;28;20032;-52
2022/04/01 03:57:42;;;;;;;1.60;0.90;;;;;;;;;;5048905;28;20032;-53
2022/04/01 04:00:08;;;;;;;;;;;;;;;;;;5047930;28;20144;-49
2022/04/01 04:02:35;;;;;;;1.42;0.95;;;;;;;;;;5048570;28;19988;-50
2022/04/01 04:05:01;;;;;;;2.05;0.95;;;;;;;;;;5049070;28;20041;-50
2022/04/01 04:07:27;;;;;;;5.88;1.05;;;;;;;;;;5036676;28;20031;-51
2022/04/01 04:09:54;;;;;;;6.13;1.17;;;;;;;;;;5048907;28;20517;-50
2022/04/01 04:12:22;;;;;;;4.32;1.63;;;;;;;;;;5041836;28;20065;-52
2022/04/01 04:14:52;;;;;;;3.60;1.10;;;;;;;;;;5048886;28;20048;-53
2022/04/01 04:17:23;;;;;;;5.37;1.40;;;;;;;;;;5048278;28;20052;-51
2022/04/01 04:20:01;;;;;;;3.70;1.15;;;;;;;;;;5048505;28;20025;-51
2022/04/01 04:22:31;;;;;;;4.18;1.30;;;;;;;;;;5046747;28;20068;-52
2022/04/01 04:24:58;;;;;;;5.53;1.45;;;;;;;;;;5048817;28;20037;-51
2022/04/01 04:27:29;;;;;;;6.65;1.80;;;;;;;;;;5048091;28;20061;-50
2022/04/01 04:30:02;;;;;;;6.65;2.10;;;;;;;;;;5048418;28;20033;-50
2022/04/01 04:32:34;;;;;;;5.32;2.30;;;;;;;;;;5047924;28;20102;-51
2022/04/01 04:35:05;;;;;;;3.90;2.00;;;;;;;;;;5049034;28;20107;-47
2022/04/01 04:37:33;;;;;;;6.43;2.05;;;;;;;;;;5046210;28;20104;-51
2022/04/01 04:40:00;;;;;;;3.25;1.65;;;;;;;;;;5048504;28;20033;-48
2022/04/01 04:42:29;;;;;;;4.32;2.05;;;;;;;;;;5047999;28;20036;-50
2022/04/01 04:44:55;;;;;;;3.85;2.00;;;;;;;;;;5045220;28;20052;-51
2022/04/01 04:47:26;;;;;;;4.45;1.80;;;;;;;;;;5048011;28;20502;-54
2022/04/01 04:49:54;;;;;;;8.32;1.98;;;;;;;;;;5047779;28;20131;-52
2022/04/01 04:52:22;;;;;;;12.30;1.80;;;;;;;;;;5047887;28;20360;-53
2022/04/01 04:54:50;;;;;;;4.57;1.90;;;;;;;;;;5048085;28;20033;-52
2022/04/01 04:57:16;;;;;;;3.55;1.80;;;;;;;;;;5047450;28;20055;-54
2022/04/01 04:59:42;;;;;;;3.47;1.77;;;;;;;;;;5047467;28;20119;-51
2022/04/01 05:02:19;;;;;;;3.38;1.73;;;;;;;;;;5047846;28;20103;-52
2022/04/01 05:04:45;;;;;;;3.08;1.80;;;;;;;;;;5036153;28;20044;-48
2022/04/01 05:07:22;;;;;;;4.97;1.60;;;;;;;;;;5047765;28;20454;-54
2022/04/01 05:10:00;;;;;;;1.92;1.35;;;;;;;;;;5036394;28;20020;-50
2022/04/01 05:12:29;;;;;;;4.20;1.40;;;;;;;;;;5047929;28;20479;-47
2022/04/01 05:15:04;;;;;;;6.60;1.38;;;;;;;;;;5047521;28;20044;-52
2022/04/01 05:17:37;;;;;;;5.30;1.75;;;;;;;;;;5047563;28;20033;-52
2022/04/01 05:20:11;;;;;;;4.60;1.92;;;;;;;;;;5046121;28;20028;-52
2022/04/01 05:22:43;;;;;;;3.28;1.60;;;;;;;;;;5046902;28;20029;-45
2022/04/01 05:25:11;;;;;;;3.22;1.70;;;;;;;;;;5047070;28;20033;-47
2022/04/01 05:27:42;;;;;;;5.00;1.10;;;;;;;;;;5046489;28;20128;-46
2022/04/01 05:30:18;;;;;;;3.03;1.33;;;;;;;;;;5047226;28;20040;-50
2022/04/01 05:32:54;;;;;;;5.68;1.40;;;;;;;;;;5047122;28;20140;-52
2022/04/01 05:35:20;;;;;;;5.20;1.50;;;;;;;;;;5045098;28;20108;-52
2022/04/01 05:37:48;;;;;;;3.10;1.02;;;;;;;;;;5047847;28;20091;-52
2022/04/01 05:40:16;;;;;;;3.22;1.25;;;;;;;;;;5047089;28;20029;-51
2022/04/01 05:42:42;;;;;;;3.13;1.48;;;;;;;;;;5047862;28;20045;-50
2022/04/01 05:45:09;;;;;;;2.67;1.30;;;;;;;;;;5047320;28;20099;-51
2022/04/01 05:47:36;;;;;;;3.75;1.50;;;;;;;;;;5046861;28;20747;-50
2022/04/01 05:50:02;;;;;;;5.85;1.20;;;;;;;;;;5035767;28;20536;-50
2022/04/01 05:52:29;;;;;;;4.30;1.30;;;;;;;;;;5046620;28;20035;-52
2022/04/01 05:54:57;;;;;;;4.03;1.10;;;;;;;;;;5046981;28;20132;-50
2022/04/01 05:57:24;;;;;;;4.70;1.10;;;;;;;;;;5044032;28;20470;-52
2022/04/01 05:59:51;;;;;;;2.20;1.08;;;;;;;;;;5038775;28;20025;-54
2022/04/01 06:02:26;;;;;;;2.72;1.30;;;;;;;;;;5032675;28;20044;-52
2022/04/01 06:05:03;;;;;;;4.30;1.42;;;;;;;;;;5044267;28;20035;-47
2022/04/01 06:07:35;;;;;;;4.88;1.25;;;;;;;;;;5047071;28;20029;-48
2022/04/01 06:10:12;;;;;;;4.88;1.15;;;;;;;;;;5046863;28;20040;-47
2022/04/01 06:12:38;;;;;;;14.73;1.70;;;;;;;;;;5046745;28;20044;-47
2022/04/01 06:15:07;;;;;;;13.85;1.50;;;;;;;;;;5046705;28;20039;-53
2022/04/01 06:17:52;;;;;;;8.50;1.00;;;;;;;;;;5044833;28;20108;-50
2022/04/01 06:20:21;;;;;;;7.45;1.42;;;;;;;;;;5047365;28;20029;-53
2022/04/01 06:22:53;;;;;;;10.27;1.30;;;;;;;;;;5048398;28;20380;-52
2022/04/01 06:25:20;;;;;;;9.98;2.17;;;;;;;;;;5047048;28;20804;-49
2022/04/01 06:27:47;;;;;;;13.65;1.23;;;;;;;;;;5040345;28;20500;-50
2022/04/01 06:30:14;;;;;;;16.08;1.63;;;;;;;;;;5044719;28;20155;-51
2022/04/01 06:32:56;;;;;;;12.95;1.85;;;;;;;;;;5043675;28;20033;-54
2022/04/01 06:35:30;;;;;;;7.63;1.58;;;;;;;;;;5043016;28;20056;-50
2022/04/01 06:38:06;;;;;;;3.58;0.95;;;;;;;;;;5040604;28;20032;-52
2022/04/01 06:40:55;;;;;;;8.15;2.08;;;;;;;;;;5040650;28;20819;-52
2022/04/01 06:43:22;;;;;;;8.23;1.58;;;;;;;;;;5040452;28;20200;-49
2022/04/01 06:45:48;;;;;;;10.38;0.90;;;;;;;;;;5043058;28;20128;-50
2022/04/01 06:48:14;;;;;;;5.70;1.10;;;;;;;;;;5044540;28;20024;-53
2022/04/01 06:50:42;;;;;;;9.38;1.40;;;;;;;;;;5044283;28;20105;-51
2022/04/01 06:53:08;;;;;;;14.98;1.38;;;;;;;;;;5047330;28;20037;-50
2022/04/01 06:55:34;;;;;;;6.38;1.60;;;;;;;;;;5040049;28;20380;-52
2022/04/01 06:58:00;;;;;;;10.35;1.33;;;;;;;;;;5042109;28;20122;-48
2022/04/01 07:00:26;;;;;;;5.00;1.20;;;;;;;;;;5037960;28;20025;-51
2022/04/01 07:02:52;;;;;;;7.28;1.60;;;;;;;;;;5044318;28;20032;-51
2022/04/01 07:05:19;;;;;;;7.90;1.15;;;;;;;;;;5038526;28;20041;-51
2022/04/01 07:07:45;;;;;;;7.88;1.17;;;;;;;;;;5044197;28;20025;-49
2022/04/01 07:10:12;;;;;;;12.00;1.50;;;;;;;;;;5041480;28;20029;-48
2022/04/01 07:12:38;;;;;;;2.17;0.82;;;;;;;;;;5043374;28;20022;-50
2022/04/01 07:15:07;;;;;;;8.00;1.25;;;;;;;;;;5038563;28;20075;-49
2022/04/01 07:17:33;;;;;;;7.22;1.38;;;;;;;;;;5045282;28;20027;-49
2022/04/01 07:19:59;;;;;;;7.28;1.33;;;;;;;;;;5038682;28;20736;-48
2022/04/01 07:22:25;;;;;;;6.30;1.10;;;;;;;;;;5042298;28;20104;-49
2022/04/01 07:24:51;;;;;;;7.50;1.17;;;;;;;;;;5039117;28;20575;-48
2022/04/01 07:27:17;;;;;;;6.18;1.25;;;;;;;;;;5041366;28;20021;-47
2022/04/01 07:29:43;;;;;;;3.75;0.93;;;;;;;;;;5039351;28;20025;-48
2022/04/01 07:34:55;;;;;;;7.72;1.20;;;;;;;;;;5038959;28;20557;-50
2022/04/01 07:37:23;;;;;;;3.70;0.90;;;;;;;;;;5043658;28;20410;-47
2022/04/01 07:39:51;;;;;;;3.10;0.80;;;;;;;;;;5043293;28;20098;-48
2022/04/01 07:42:18;;;;;;;4.97;1.05;;;;;;;;;;5036680;28;20536;-50
2022/04/01 07:44:44;;;;;;;10.52;1.05;;;;;;;;;;5050576;28;20045;-51
2022/04/01 07:47:11;;;;;;;7.10;1.00;;;;;;;;;;5050452;28;20070;-50
2022/04/01 07:49:37;;;;;;;12.90;1.50;;;;;;;;;;5050496;28;20021;-50
2022/04/01 07:52:07;;;;;;;12.70;1.42;;;;;;;;;;5050599;28;20033;-50
2022/04/01 07:54:34;;;;;;;9.15;1.30;;;;;;;;;;5049639;28;20033;-51
2022/04/01 07:57:00;;;;;;;5.72;1.10;;;;;;;;;;5037341;28;20025;-51
2022/04/01 07:59:26;;;;;;;15.00;1.92;;;;;;;;;;5039292;28;20391;-49
2022/04/01 08:01:52;;;;;;;8.77;1.27;;;;;;;;;;5033865;28;20479;-50
2022/04/01 08:04:18;;;;;;;9.10;0.98;;;;;;;;;;5040857;28;20564;-50
2022/04/01 08:06:45;;;;;;;5.43;0.82;;;;;;;;;;5033186;28;20399;-47
2022/04/01 08:09:11;;;;;;;9.60;1.30;;;;;;;;;;5038583;28;20026;-48
2022/04/01 08:11:37;;;;;;;6.28;1.27;;;;;;;;;;5030201;28;20400;-48
2022/04/01 08:14:03;;;;;;;4.30;1.00;;;;;;;;;;5035023;28;20032;-49
2022/04/01 08:16:29;;;;;;;5.60;1.42;;;;;;;;;;5033097;28;20033;-49
2022/04/01 08:18:55;;;;;;;6.50;0.93;;;;;;;;;;5032962;28;20022;-47
2022/04/01 08:21:21;;;;;;;5.13;1.10;;;;;;;;;;5034447;28;20029;-50
2022/04/01 08:23:48;;;;;;;6.88;1.08;;;;;;;;;;5035576;28;20684;-50
2022/04/01 08:26:14;;;;;;;4.35;1.10;;;;;;;;;;5036147;28;20968;-51
2022/04/01 08:28:41;;;;;;;4.00;0.80;;;;;;;;;;5035680;28;20487;-51
2022/04/01 08:31:08;;;;;;;8.13;1.23;;;;;;;;;;5035898;28;20033;-48
2022/04/01 08:33:34;;;;;;;6.40;1.33;;;;;;;;;;5034541;28;20566;-52
2022/04/01 08:36:00;;;;;;;2.55;0.98;;;;;;;;;;5035877;28;20112;-48
2022/04/01 08:38:26;;;;;;;5.38;1.30;;;;;;;;;;5032885;28;20543;-49
2022/04/01 08:40:52;;;;;;;5.40;0.85;;;;;;;;;;5033463;28;20112;-50
2022/04/01 08:43:26;;;;;;;5.28;1.05;;;;;;;;;;5032201;28;20120;-52
2022/04/01 08:45:52;;;;;;;6.45;1.10;;;;;;;;;;5035416;28;20051;-48
2022/04/01 08:48:18;;;;;;;7.43;1.20;;;;;;;;;;5035016;28;20041;-50
2022/04/01 08:50:44;;;;;;;5.63;0.90;;;;;;;;;;5033577;28;20100;-56
2022/04/01 08:53:10;;;;;;;6.78;1.08;;;;;;;;;;5032082;28;20083;-49
2022/04/01 08:55:37;;;;;;;4.50;1.45;;;;;;;;;;5032639;28;20115;-47
2022/04/01 08:58:03;;;;;;;3.30;0.75;;;;;;;;;;5035327;28;20032;-49
2022/04/01 09:00:30;;;;;;;5.28;0.90;;;;;;;;;;5036157;28;20024;-48
2022/04/01 09:03:00;;;;;;;3.70;0.82;;;;;;;;;;5036967;28;20097;-48
2022/04/01 09:05:26;;;;;;;2.75;0.82;;;;;;;;;;5033346;28;20045;-50
2022/04/01 09:08:08;;;;;;;4.43;0.82;;;;;;;;;;5036883;28;20021;-47
2022/04/01 09:10:49;;;;;;;3.40;0.82;;;;;;;;;;5036311;28;20840;-49
2022/04/01 09:13:16;;;;;;;4.72;0.98;;;;;;;;;;5036413;28;20387;-50
2022/04/01 09:15:43;;;;;;;3.20;1.00;;;;;;;;;;5034070;28;20033;-52
2022/04/01 09:18:09;;;;;;;6.60;0.82;;;;;;;;;;5036057;28;20037;-47
2022/04/01 09:20:54;;;;;;;6.05;1.30;;;;;;;;;;5033426;28;20491;-52
2022/04/01 09:23:23;;;;;;;4.38;1.15;;;;;;;;;;5030605;28;20029;-53
2022/04/01 09:25:50;;;;;;;4.35;1.00;;;;;;;;;;5032220;28;20055;-52
2022/04/01 09:28:30;;;;;;;4.07;1.23;;;;;;;;;;5038096;28;20045;-48
2022/04/01 09:30:56;;;;;;;2.78;0.98;;;;;;;;;;5047619;28;20091;-48
2022/04/01 09:33:22;;;;;;;3.30;0.70;;;;;;;;;;5046886;28;20129;-50
2022/04/01 09:35:49;;;;;;;8.35;1.13;;;;;;;;;;5045420;28;20112;-50
2022/04/01 09:38:18;;;;;;;10.55;1.48;;;;;;;;;;5044901;28;20040;-51
2022/04/01 09:40:44;;;;;;;11.68;1.40;;;;;;;;;;5046539;28;20028;-49
2022/04/01 09:43:10;;;;;;;17.90;2.95;;;;;;;;;;5039633;28;20109;-49
2022/04/01 09:45:37;;;;;;;8.13;1.00;;;;;;;;;;5047613;28;20029;-49
2022/04/01 09:48:03;;;;;;;9.43;1.60;;;;;;;;;;5042941;28;20028;-50
2022/04/01 09:50:31;;;;;;;9.05;1.70;;;;;;;;;;5042873;28;20118;-50
2022/04/01 09:53:07;;;;;;;7.43;1.35;;;;;;;;;;5043801;28;20037;-50
2022/04/01 09:55:40;;;;;;;10.45;1.35;;;;;;;;;;5047509;28;20025;-55
2022/04/01 09:58:06;;;;;;;7.00;1.08;;;;;;;;;;5042043;28;20036;-53
2022/04/01 10:00:33;;;;;;;10.15;1.90;;;;;;;;;;5031767;28;20030;-53
2022/04/01 10:02:59;;;;;;;11.82;2.33;;;;;;;;;;5041873;28;20426;-54
2022/04/01 10:05:25;;;;;;;11.30;1.90;;;;;;;;;;5046078;28;20116;-55
2022/04/01 10:07:52;;;;;;;9.57;1.25;;;;;;;;;;5040285;28;20057;-54
2022/04/01 10:10:19;;;;;;;8.77;1.55;;;;;;;;;;5051374;28;20025;-52
2022/04/01 10:12:47;;;;;;;5.20;1.00;;;;;;;;;;5050524;28;20036;-52
2022/04/01 10:15:14;;;;;;;8.63;1.70;;;;;;;;;;5051762;28;20163;-52
2022/04/01 10:17:41;;;;;;;4.50;0.93;;;;;;;;;;5048178;28;20460;-54
2022/04/01 10:20:08;;;;;;;11.98;1.73;;;;;;;;;;5049597;28;20029;-50
2022/04/01 10:22:35;;;;;;;6.53;1.30;;;;;;;;;;5049909;28;20040;-51
2022/04/01 10:25:07;;;;;;;5.32;0.98;;;;;;;;;;5051156;28;20033;-54
2022/04/01 10:27:47;;;;;;;5.90;1.00;;;;;;;;;;5051477;28;20425;-51
2022/04/01 10:30:15;;;;;;;4.75;1.30;;;;;;;;;;5049651;28;20021;-54
2022/04/01 10:32:42;;;;;;;6.57;1.38;;;;;;;;;;5052170;28;20029;-51
2022/04/01 10:35:10;;;;;;;3.83;1.35;;;;;;;;;;5051662;28;20033;-53
2022/04/01 10:37:36;;;;;;;7.50;1.35;;;;;;;;;;5035624;28;20033;-53
2022/04/01 10:40:16;;;;;;;5.38;1.42;;;;;;;;;;5050139;28;20025;-55
2022/04/01 10:42:42;;;;;;;4.70;1.30;;;;;;;;;;5050321;28;20062;-52
2022/04/01 10:45:22;;;;;;;4.43;1.10;;;;;;;;;;5042522;28;20045;-52
2022/04/01 10:53:38;;;;;;;8.18;1.35;;;;;;;;;;5030915;28;20091;-53
2022/04/01 10:56:23;;;;;;;5.28;1.17;;;;;;;;;;5050437;28;20025;-53
2022/04/01 10:59:08;;;;;;;3.13;1.38;;;;;;;;;;5049933;28;20025;-50
2022/04/01 11:01:35;;;;;;;2.95;1.02;;;;;;;;;;5039480;28;20020;-53
2022/04/01 11:04:13;;;;;;;3.80;1.15;;;;;;;;;;5050242;28;20033;-49
2022/04/01 11:06:58;;;;;;;4.78;1.30;;;;;;;;;;5038825;28;20120;-54
2022/04/01 11:09:45;;;;;;;2.40;1.23;;;;;;;;;;5049457;28;20024;-53
2022/04/01 11:12:18;;;;;;;3.67;1.13;;;;;;;;;;5042487;28;20029;-55
2022/04/01 11:15:12;;;;;;;6.65;1.38;;;;;;;;;;5050445;28;20028;-52
2022/04/01 11:17:41;;;;;;;3.20;1.20;;;;;;;;;;5051272;28;20029;-53
2022/04/01 11:20:07;;;;;;;4.30;1.20;;;;;;;;;;5051027;28;20024;-54
2022/04/01 11:22:37;;;;;;;4.75;1.33;;;;;;;;;;5048334;28;20039;-52
2022/04/01 11:25:04;;;;;;;3.40;1.05;;;;;;;;;;5050783;28;20033;-52
2022/04/01 11:27:30;;;;;;;4.60;1.23;;;;;;;;;;5050555;28;20495;-53
2022/04/01 11:30:06;;;;;;;2.45;1.15;;;;;;;;;;5050244;28;20041;-53
2022/04/01 11:32:34;;;;;;;4.03;1.40;;;;;;;;;;5049871;28;20021;-50
2022/04/01 11:35:01;;;;;;;2.22;1.02;;;;;;;;;;5034085;28;20020;-53
2022/04/01 11:37:27;;;;;;;3.92;1.13;;;;;;;;;;5049533;28;20100;-50
2022/04/01 11:39:53;;;;;;;3.95;1.48;;;;;;;;;;5050245;28;20032;-52
2022/04/01 11:42:20;;;;;;;4.38;1.35;;;;;;;;;;5050471;28;20045;-52
2022/04/01 11:44:56;;;;;;;6.05;1.95;;;;;;;;;;5050495;28;20502;-49
2022/04/01 11:47:27;;;;;;;4.45;1.33;;;;;;;;;;5045215;28;20025;-50
2022/04/01 11:50:06;;;;;;;9.05;1.40;;;;;;;;;;5050022;28;20543;-51
2022/04/01 11:52:43;;;;;;;6.68;1.63;;;;;;;;;;5039563;28;20455;-49
2022/04/01 11:55:18;;;;;;;5.20;1.48;;;;;;;;;;5046406;28;20025;-53
2022/04/01 11:57:44;;;;;;;8.50;2.22;;;;;;;;;;5049943;28;20116;-56
2022/04/01 12:00:14;;;;;;;4.75;1.20;;;;;;;;;;5050398;28;20493;-53
2022/04/01 12:02:41;;;;;;;10.70;2.33;;;;;;;;;;5050218;28;20045;-52
2022/04/01 12:05:07;;;;;;;8.68;1.58;;;;;;;;;;5044174;28;20161;-53
2022/04/01 12:10:26;;;;;;;15.05;2.10;;;;;;;;;;5030467;28;20108;-52
2022/04/01 12:13:12;;;;;;;5.55;1.65;;;;;;;;;;5047138;28;20025;-50
2022/04/01 12:15:42;;;;;;;5.00;1.88;;;;;;;;;;5049872;28;20023;-48
2022/04/01 12:18:12;;;;;;;8.45;1.92;;;;;;;;;;5049978;28;20124;-55
2022/04/01 12:20:40;;;;;;;3.55;1.48;;;;;;;;;;5047273;28;20047;-55
2022/04/01 12:23:06;;;;;;;4.10;1.70;;;;;;;;;;5035818;28;20121;-51
2022/04/01 12:25:37;;;;;;;12.02;1.75;;;;;;;;;;5048971;28;20043;-50
2022/04/01 12:28:07;;;;;;;6.95;1.80;;;;;;;;;;5048242;28;20103;-50
2022/04/01 12:30:36;;;;;;;8.30;1.60;;;;;;;;;;5047767;28;20037;-48
2022/04/01 12:33:04;;;;;;;8.82;1.70;;;;;;;;;;5048379;28;20033;-54
2022/04/01 12:35:30;;;;;;;3.38;1.58;;;;;;;;;;5041494;28;20037;-55
2022/04/01 12:38:07;;;;;;;6.55;2.05;;;;;;;;;;5047951;28;20025;-49
2022/04/01 12:40:34;;;;;;;7.00;1.65;;;;;;;;;;5047122;28;20033;-49
2022/04/01 12:43:00;;;;;;;6.82;1.73;;;;;;;;;;5047816;28;20033;-50
2022/04/01 12:45:26;;;;;;;6.60;1.52;;;;;;;;;;5044899;28;20128;-48
2022/04/01 12:47:52;;;;;;;6.05;1.70;;;;;;;;;;5047469;28;20436;-48
2022/04/01 12:50:35;;;;;;;6.38;1.90;;;;;;;;;;5044914;28;20147;-50
2022/04/01 12:53:12;;;;;;;4.35;1.40;;;;;;;;;;5047947;28;20110;-52
2022/04/01 12:55:38;;;;;;;3.75;1.48;;;;;;;;;;5048512;28;20029;-53
2022/04/01 12:58:09;;;;;;;5.03;1.52;;;;;;;;;;5048341;28;20070;-51
2022/04/01 13:00:35;;;;;;;5.70;1.60;;;;;;;;;;5048959;28;20483;-54
2022/04/01 13:03:01;;;;;;;4.82;1.70;;;;;;;;;;5048969;28;20021;-55
2022/04/01 13:05:28;;;;;;;4.95;1.85;;;;;;;;;;5047361;28;20037;-55
2022/04/01 13:07:54;;;;;;;5.45;1.50;;;;;;;;;;5034082;28;20518;-53
2022/04/01 13:10:23;;;;;;;8.27;1.85;;;;;;;;;;5048488;28;20024;-56
2022/04/01 13:12:52;;;;;;;5.40;1.70;;;;;;;;;;5048870;28;20037;-54
2022/04/01 13:15:20;;;;;;;8.63;1.75;;;;;;;;;;5044232;28;20058;-53
2022/04/01 13:18:04;;;;;;;5.55;1.67;;;;;;;;;;5029391;28;20122;-55
2022/04/01 13:20:31;;;;;;;9.55;1.80;;;;;;;;;;5047488;28;20119;-55
2022/04/01 13:23:03;;;;;;;5.68;1.80;;;;;;;;;;5048794;28;20025;-51
2022/04/01 13:25:31;;;;;;;6.53;2.08;;;;;;;;;;5048274;28;20132;-53
2022/04/01 13:27:57;;;;;;;9.57;2.17;;;;;;;;;;5046941;28;20049;-53
2022/04/01 13:30:23;;;;;;;6.63;2.00;;;;;;;;;;5048200;28;20029;-54
2022/04/01 13:32:50;;;;;;;7.78;1.80;;;;;;;;;;5048597;28;20029;-52
2022/04/01 13:35:16;;;;;;;8.48;1.75;;;;;;;;;;5047169;28;20090;-56
2022/04/01 13:37:42;;;;;;;7.28;2.33;;;;;;;;;;5048091;28;20515;-54
2022/04/01 13:40:09;;;;;;;6.15;1.60;;;;;;;;;;5045598;28;20030;-55
2022/04/01 13:42:35;;;;;;;5.68;1.45;;;;;;;;;;5047564;28;20036;-54
2022/04/01 13:45:01;;;;;;;5.07;1.67;;;;;;;;;;5048594;28;20025;-52
2022/04/01 13:47:27;;;;;;;5.10;1.85;;;;;;;;;;5046399;28;20424;-52
2022/04/01 13:49:53;;;;;;;7.78;1.70;;;;;;;;;;5035261;28;20029;-53
2022/04/01 13:52:19;;;;;;;4.82;1.83;;;;;;;;;;5048264;28;20116;-54
2022/04/01 13:54:46;;;;;;;3.90;1.75;;;;;;;;;;5048402;28;20032;-49
2022/04/01 13:57:12;;;;;;;7.38;1.92;;;;;;;;;;5048475;28;20025;-49
2022/04/01 13:59:39;;;;;;;4.90;1.60;;;;;;;;;;5048701;28;20095;-52
2022/04/01 14:02:09;;;;;;;4.20;1.65;;;;;;;;;;5047558;28;20525;-55
2022/04/01 14:04:36;;;;;;;2.67;1.48;;;;;;;;;;5028262;28;20408;-52
2022/04/01 14:07:09;;;;;;;3.38;1.42;;;;;;;;;;5047986;28;20029;-53
2022/04/01 14:09:36;;;;;;;4.05;2.00;;;;;;;;;;5048299;28;20463;-51
2022/04/01 14:12:03;;;;;;;5.10;1.90;;;;;;;;;;5034826;28;20041;-53
2022/04/01 14:14:29;;;;;;;5.20;1.85;;;;;;;;;;5048897;28;20036;-52
2022/04/01 14:16:55;;;;;;;6.90;1.80;;;;;;;;;;5048485;28;20078;-52
2022/04/01 14:19:21;;;;;;;3.33;1.38;;;;;;;;;;5048396;28;20044;-53
2022/04/01 14:21:47;;;;;;;5.55;1.65;;;;;;;;;;5048025;28;20499;-52
2022/04/01 14:24:19;;;;;;;5.78;1.40;;;;;;;;;;5048461;28;20116;-49
2022/04/01 14:26:45;;;;;;;3.63;1.30;;;;;;;;;;5046406;28;20048;-50
2022/04/01 14:32:00;;;;;;;3.67;1.27;;;;;;;;;;5047785;28;20106;-49
2022/04/01 14:34:29;;;;;;;4.28;1.52;;;;;;;;;;5035478;28;20404;-53
2022/04/01 14:36:56;;;;;;;8.80;1.40;;;;;;;;;;5038574;28;20025;-50
2022/04/01 14:39:25;;;;;;;6.82;1.63;;;;;;;;;;5048505;28;20485;-50
2022/04/01 14:41:51;;;;;;;4.05;1.42;;;;;;;;;;5046628;28;20108;-52
2022/04/01 14:44:17;;;;;;;3.92;1.33;;;;;;;;;;5050784;28;20171;-52
2022/04/01 14:46:44;;;;;;;5.10;1.40;;;;;;;;;;5051432;28;20039;-51
2022/04/01 14:49:10;;;;;;;8.40;1.50;;;;;;;;;;5051761;28;20029;-53
2022/04/01 14:51:37;;;;;;;6.15;1.92;;;;;;;;;;5050642;28;20024;-53
2022/04/01 14:54:02;;;;;;;5.57;1.70;;;;;;;;;;5051338;28;20099;-51
2022/04/01 14:56:28;;;;;;;7.28;1.98;;;;;;;;;;5050441;28;20128;-52
2022/04/01 14:58:55;;;;;;;6.57;1.75;;;;;;;;;;5051188;28;20025;-50
2022/04/01 15:01:21;;;;;;;4.72;2.03;;;;;;;;;;5051813;28;20107;-52
2022/04/01 15:03:47;;;;;;;4.03;1.60;;;;;;;;;;5050963;28;20439;-54
2022/04/01 15:06:13;;;;;;;5.32;2.00;;;;;;;;;;5051550;28;20463;-54
2022/04/01 15:08:38;;;;;;;5.47;2.03;;;;;;;;;;5050769;28;20119;-53